Statewide Weather Sensors

Route Weather Station Name Milepost Date / Time Surface Status Surface Temp Precip Intensity Wind Avg Wind Gust Dir Dewpoint Humidity Air Temp Visibility
I 25 Wyo Hill 3.52 Jul 22, 2024, 11:02 AM     None None 8 mph 16 mph N 44.6°F 37% 71.6°F > 1/2 mi
I 25 Whitaker 28.1 Jul 22, 2024, 11:02 AM N/A   None None 5 mph 12 mph N 46.4°F 41% 71.6°F > 1/2 mi
I 25 Bear Creek 46.77 Jul 22, 2024, 11:02 AM Dry 105.3°F None None 9 mph 14 mph NE 46.4°F 39% 71.6°F > 1/2 mi
I 25 Bordeaux 70.8 Jul 22, 2024, 11:02 AM Dry 104.9°F None None 7 mph 15 mph NE 46.4°F 37% 75.2°F > 1/2 mi
I 25 Coleman 98.7 Jul 22, 2024, 11:02 AM Dry 98.1°F None None 7 mph 12 mph NE 50.0°F 40% 77.0°F > 1/2 mi
I 25 Platte/Converse County Line 119.9 Jul 22, 2024, 11:02 AM Dry 90.0°F None None 5 mph 7 mph W 48.2°F 34% 78.8°F > 1/2 mi
I 25 Deer Creek 164.2 Jul 22, 2024, 11:02 AM Dry 102.0°F None None 2 mph 8 mph N 48.2°F 38% 75.2°F > 1/2 mi
I 25 Hat Six 181.67 Jul 22, 2024, 11:02 AM Dry 90.9°F None None 2 mph 7 mph SW 48.2°F 37% 75.2°F > 1/2 mi
I 25 F Street Hill 189.51 Jul 22, 2024, 11:02 AM Dry 85.6°F None None 6 mph 8 mph E 46.4°F 33% 77.0°F > 1/2 mi
I 25 Twenty Mile Hill 207.2 Jul 22, 2024, 11:02 AM Dry 89.1°F None None 8 mph 14 mph N 44.6°F 32% 75.2°F > 1/2 mi
I 25 Smokey Gap 228.58 Jul 22, 2024, 11:02 AM Dry 95.9°F None None 4 mph 8 mph W 48.2°F 35% 78.8°F > 1/2 mi
I 25 Tisdale 238.87 Feb 21, 2024, 11:42 PM                      
I 25 I-25 Divide 267.3 Jul 22, 2024, 11:02 AM Dry 93.4°F None 8 mph 14 mph N 46.4°F 31% 78.8°F > 1/2 mi
I 80 Evanston POE 0.06 Jul 22, 2024, 11:02 AM Dry 82.2°F None None 11 mph 16 mph NE 39.2°F 29% 73.4°F > 1/2 mi
I 80 Evanston 4.2 Jul 22, 2024, 11:02 AM N/A   None None 11 mph 17 mph NE 41.0°F 28% 75.2°F > 1/2 mi
I 80 Bear River Drive 6.94 Jul 22, 2024, 11:02 AM Dry 88.7°F None None 11 mph 16 mph E 39.2°F 27% 75.2°F > 1/2 mi
I 80 Painter 10.16 Jul 22, 2024, 11:02 AM Dry 91.8°F None None 11 mph 21 mph NE 39.2°F 29% 73.4°F > 1/2 mi
I 80 First Divide 13.86 Jul 22, 2024, 11:02 AM Dry 99.7°F None None 10 mph 17 mph E 37.4°F 30% 69.8°F > 1/2 mi
I 80 US 189 Interchange 17.66 Jul 22, 2024, 11:02 AM Dry 93.4°F None None 9 mph 14 mph NE 39.2°F 31% 71.6°F > 1/2 mi
I 80 Coal Road 20.95 Jul 22, 2024, 11:02 AM Dry 93.7°F None None 6 mph 12 mph E 39.2°F 32% 69.8°F > 1/2 mi
I 80 Leroy 23.35 Jul 22, 2024, 11:02 AM Dry 66.9°F None None 12 mph 25 mph NW 41.0°F 31% 71.6°F > 1/2 mi
I 80 French 27.6 Jul 22, 2024, 11:02 AM Dry 91.9°F None None 8 mph 14 mph E 39.2°F 31% 69.8°F > 1/2 mi
I 80 Church Butte 52.65 Jul 22, 2024, 11:02 AM Dry 102.9°F None None 9 mph 14 mph E 35.6°F 26% 73.4°F > 1/2 mi
I 80 Peru Hill 82.31 Jul 22, 2024, 11:02 AM Dry 105.8°F None None 3 mph 10 mph NE 39.2°F 25% 77.0°F > 1/2 mi
I 80 Green River Tunnel 90.5 Jul 22, 2024, 11:02 AM Dry 98.8°F None None 2 mph 9 mph E 39.2°F 27% 75.2°F > 1/2 mi
I 80 Rock Springs West 97.9 Jul 22, 2024, 11:02 AM N/A   None None 6 mph 9 mph E 37.4°F 25% 75.2°F > 1/2 mi
I 80 Baxter Road 111.5 Jul 22, 2024, 11:02 AM Dry 89.1°F None None 3 mph 7 mph NE -5.8°F 25% 24.8°F > 1/2 mi
I 80 Mile Marker 124.5 124.5 Jul 22, 2024, 11:02 AM Dry 106.2°F None None 2 mph 9 mph NE 41.0°F 27% 77.0°F > 1/2 mi
I 80 Point of Rocks 129.8 Jul 22, 2024, 11:02 AM Dry 104.2°F None None 2 mph 7 mph NE 42.8°F 30% 75.2°F > 1/2 mi
I 80 Black Butte 134.91 Jul 22, 2024, 11:02 AM Dry 87.4°F None None 4 mph 8 mph NE 42.8°F 31% 75.2°F > 1/2 mi
I 80 Bitter Creek 141.83 Jul 22, 2024, 11:02 AM Dry 88.9°F None None 2 mph 6 mph SW 39.2°F 30% 71.6°F > 1/2 mi
I 80 Tipton 156.72 Jul 22, 2024, 11:02 AM Wet 92.5°F None None 0 mph 0 mph N 39.2°F 28% 75.2°F > 1/2 mi
I 80 Continental Divide 184.3 Jul 22, 2024, 11:02 AM Dry 92.3°F None None 5 mph 14 mph NE 39.2°F 32% 69.8°F > 1/2 mi
I 80 Sinclair 221.7 Jul 22, 2024, 11:02 AM Dry 83.7°F None None 4 mph 7 mph NE 42.8°F 39% 68.0°F > 1/2 mi
I 80 Walcott Junction 234.66 Jul 22, 2024, 11:02 AM Dry 99.7°F None None 2 mph 6 mph NE 42.8°F 37% 69.8°F > 1/2 mi
I 80 Dana Ridge 244.8 Jul 22, 2024, 11:02 AM Dry 96.6°F None None 9 mph 14 mph N 39.2°F 37% 66.2°F > 1/2 mi
I 80 Mile Marker 249.1 249.1 Jul 22, 2024, 11:02 AM Dry 100.0°F None None 7 mph 17 mph E 37.4°F 34% 66.2°F > 1/2 mi
I 80 Halleck Ridge 252.16 Jul 22, 2024, 11:02 AM Dry 89.8°F None None 5 mph 11 mph NE 37.4°F 36% 66.2°F > 1/2 mi
I 80 Elk Mountain 256.17 Jul 22, 2024, 11:02 AM Dry 83.5°F None None 6 mph 14 mph NE 41.0°F 35% 69.8°F > 1/2 mi
I 80 County Road 402 262 Jul 22, 2024, 11:02 AM N/A   None None 6 mph 11 mph N 41.0°F 40% 66.2°F > 1/2 mi
I 80 Wagonhound 266.58 Jul 22, 2024, 11:02 AM Dry 96.1°F None None 6 mph 9 mph N 41.0°F 37% 68.0°F > 1/2 mi
I 80 Foote Creek 269.5 Jul 22, 2024, 11:02 AM Dry 85.5°F None None 7 mph 14 mph NW 41.0°F 41% 64.4°F > 1/2 mi
I 80 Arlington 271.8 Jul 22, 2024, 11:02 AM Dry 82.9°F None None 2 mph 15 mph NE 41.0°F 37% 68.0°F > 1/2 mi
I 80 Arlington East 273.85 Jul 22, 2024, 11:02 AM Dry 90.5°F None None 6 mph 12 mph NE 42.8°F 43% 64.4°F > 1/2 mi
I 80 Cooper Cove 279.36 Jul 22, 2024, 11:02 AM Dry 86.2°F None None 9 mph 14 mph NW 41.0°F 42% 64.4°F > 1/2 mi
I 80 Strouss Hill 283.75 Jul 22, 2024, 11:02 AM N/A   None None 11 mph 16 mph N 39.2°F 39% 64.4°F > 1/2 mi
I 80 Quealy Dome 289.5 Jul 22, 2024, 11:02 AM Dry 91.6°F None None 9 mph 14 mph N 42.8°F 42% 66.2°F > 1/2 mi
I 80 Herrick Lane 297.66 Jul 22, 2024, 11:02 AM Dry 86.7°F None None 6 mph 8 mph N 46.4°F 52% 64.4°F > 1/2 mi
I 80 Summit East 325.8 Jul 22, 2024, 11:02 AM Dry 70.3°F None None 9 mph 15 mph W 39.2°F 50% 59.0°F > 1/2 mi
I 80 Vedauwoo 329.4 Jul 22, 2024, 11:02 AM Dry 85.5°F None None 6 mph 11 mph W 41.0°F 48% 60.8°F > 1/2 mi
I 80 Lone Tree 333.32 Jul 22, 2024, 11:02 AM Dry 83.3°F None None 4 mph 11 mph N 39.2°F 38% 64.4°F > 1/2 mi
I 80 Buford East 336.1 Jul 22, 2024, 11:02 AM Dry 90.7°F None None 11 mph 14 mph NE 39.2°F 38% 66.2°F > 1/2 mi
I 80 Remount Road 340.5 Jul 22, 2024, 11:02 AM Dry 95.0°F None None 9 mph 20 mph N 44.6°F 39% 69.8°F > 1/2 mi
I 80 Otto 347.69 Jul 22, 2024, 11:02 AM Dry 86.5°F None None 6 mph 17 mph N 42.8°F 41% 68.0°F > 1/2 mi
I 80 MP 353 353 Jul 22, 2024, 11:02 AM Dry 99.5°F None None 7 mph 11 mph N 44.6°F 39% 69.8°F > 1/2 mi
I 80 Cheyenne East 373 Jul 22, 2024, 11:02 AM Dry 94.3°F None None NaN mph NaN mph N 46.4°F 39% 73.4°F > 1/2 mi
I 90 Montana State Line 0.1 Jul 22, 2024, 11:02 AM Trace Moisture 113.0°F None None 6 mph 8 mph SE 48.2°F 30% 82.4°F > 1/2 mi
I 90 Pompey Creek 35.3 Jul 22, 2024, 11:02 AM Dry 100.6°F None None 6 mph 11 mph SE 41.0°F 21% 84.2°F > 1/2 mi
I 90 Sheridan/Johnson County Line 41.33 Jan 29, 2023, 07:04 PM                      
I 90 Piney Creek Interchange 44.7 Jul 22, 2024, 11:02 AM Dry 97.7°F None None 6 mph 9 mph NE 46.4°F 29% 80.6°F > 1/2 mi
I 90 Kearny Divide 45.33 Aug 25, 2023, 12:02 PM                      
I 90 Indian Creek Road 83.3 Jul 22, 2024, 11:02 AM Dry 109.2°F None None 4 mph 8 mph SE 42.8°F 27% 80.6°F > 1/2 mi
I 90 Dead Horse 91.5 Jul 22, 2024, 11:02 AM Dry 57.7°F None None 12 mph 19 mph SW 35.6°F 16% 86.0°F > 1/2 mi
I 90 Mile Marker 108 108 Jul 22, 2024, 11:02 AM Dry 113.0°F None None 5 mph 9 mph W 46.4°F 31% 78.8°F > 1/2 mi
I 90 Inyan Kara 170.5 Jul 22, 2024, 11:02 AM Dry 103.1°F None 2 mph 11 mph NE 55.4°F 42% 80.6°F  
I 90 Beulah 205.9 Jul 22, 2024, 11:02 AM Trace Moisture 95.4°F None None 2 mph 5 mph E 53.6°F 35% 84.2°F > 1/2 mi
US 14 Ucross 27.83 Dec 12, 2023, 09:38 AM                      
US 14 Granite Pass 38.95 Jul 22, 2024, 11:02 AM N/A   None 4 mph 9 mph NE 42.8°F 48% 60.8°F < 1/4 mi
US 14 Sunny Divide 185.89 Jul 22, 2024, 11:02 AM Dry 95.5°F None None 4 mph 9 mph W 50.0°F 39% 77.0°F > 1/2 mi
US 16 Big Horn County Line 44.01 Jul 22, 2024, 11:02 AM Dry 82.8°F None None NaN mph NaN mph N 42.8°F 44% 64.4°F > 1/2 mi
US 191 Farson 40.45 Jul 22, 2024, 11:02 AM Wet 43.3°F None 1 mph 1 mph NW 41.0°F 30% 75.2°F  
US 191 Warren Bridge 119.9 Jul 22, 2024, 11:02 AM N/A   None None 5 mph 12 mph S 41.0°F 38% 68.0°F > 1/2 mi
US 20 Natrona 30 Jul 22, 2024, 11:02 AM N/A   None None 4 mph 7 mph SW 46.4°F 33% 77.0°F > 1/2 mi
US 20 Hiland 57.4 Jul 22, 2024, 11:02 AM Dry 95.2°F None None 6 mph 7 mph NW 42.8°F 30% 77.0°F > 1/2 mi
US 20 Van Tassell 57.85 Jul 22, 2024, 11:02 AM Dry 97.7°F None None 9 mph 16 mph NE 51.8°F 43% 77.0°F > 1/2 mi
US 26 Wind River Lake 26.05 Jul 22, 2024, 11:02 AM Wet 78.3°F None None 6 mph 10 mph W 39.2°F 42% 62.6°F > 1/2 mi
US 287 Pumpkin Vine 420.4 Jul 22, 2024, 11:02 AM Dry 100.6°F None None 9 mph 16 mph N 42.8°F 45% 64.4°F > 1/2 mi
US 30 Sage Junction 34 Jul 22, 2024, 11:02 AM Dry 91.6°F None None 11 mph 16 mph E 42.8°F 30% 77.0°F > 1/2 mi
US 30 Nugget Canyon 39.7 Jul 22, 2024, 11:02 AM Dry 92.5°F None None 9 mph 16 mph SE 39.2°F 30% 73.4°F > 1/2 mi
US 85 Gun Barrel 46.8 Jul 22, 2024, 11:02 AM Dry 94.3°F None None 8 mph 15 mph N 50.0°F 46% 73.4°F > 1/2 mi
US 85 Four Corners 247.2 Jul 22, 2024, 11:02 AM N/A   None None 13 mph 18 mph N 51.8°F 51% 69.8°F > 1/2 mi
WY 120 Meeteetse 61.5 Jul 22, 2024, 11:02 AM Dry   None 0 mph 3 mph E 17.6°F 9% 78.8°F > 1/2 mi
WY 210 Wildcat Trail 21.52 Jul 22, 2024, 11:02 AM Dry 107.6°F None None 9 mph 15 mph NE 42.8°F 40% 68.0°F > 1/2 mi
WY 210 Hynds Lodge Road 24.55 Jul 22, 2024, 11:02 AM N/A   None None 5 mph 11 mph N 42.8°F 46% 64.4°F > 1/2 mi
WY 22 Teton Pass 11.2 Jul 22, 2024, 11:02 AM Dry 96.4°F None None 9 mph 15 mph E 42.8°F 49% 62.6°F > 1/2 mi
WY 220 Pathfinder Hill 80.1 Jul 22, 2024, 11:02 AM Dry 93.6°F None 4 mph 11 mph NE 48.2°F 42% 73.4°F  
WY 230 Skyline 230 113.2 Jul 22, 2024, 11:02 AM N/A   None None 9 mph 14 mph NW 39.2°F 40% 62.6°F > 1/2 mi
WY 258 Outer Drive 13.77 Jul 22, 2024, 11:02 AM Dry 96.8°F None None 4 mph 13 mph NW 44.6°F 34% 75.2°F > 1/2 mi
WY 28 New South Pass 41.4 Jul 22, 2024, 11:02 AM N/A   None NaN mph NaN mph N   NaN%    
WY 28 Lower Red Canyon 59.71 Jul 22, 2024, 11:02 AM Dry 95.0°F None None 4 mph 11 mph N 42.8°F 34% 73.4°F > 1/2 mi
WY 296 Chief Joseph 32.96 Jul 22, 2024, 11:02 AM N/A   None None 4 mph 6 mph NW 41.0°F 39% 68.0°F > 1/2 mi
WY 372 Shute Creek 34 Jul 22, 2024, 11:02 AM N/A   None None 4 mph 7 mph N   NaN%   > 1/2 mi
WY 387 Pine Tree Junction 131.79 Jul 22, 2024, 11:02 AM Dry 96.6°F None None 4 mph 9 mph NE 44.6°F 32% 77.0°F > 1/2 mi
WY 487 Shirley Rim 37 Jul 22, 2024, 11:02 AM Dry 97.0°F None None 6 mph 14 mph N 39.2°F 35% 68.0°F > 1/2 mi
WY 59 Belle Fourche 87 Jul 22, 2024, 11:02 AM Dry 109.2°F None 6 mph 14 mph N 46.4°F 30% 80.6°F  
WY 789 Beaver Rim 48.1 Jul 22, 2024, 11:02 AM     None None 7 mph 9 mph NW 15.8°F 9% 75.2°F > 1/2 mi